sensor_id;sensor_type;location;lat;lon;timestamp;temperature;humidity
35463;DHT22;21578;47.892;9.970;2024-02-21T00:03:44;3.50;96.60
35463;DHT22;21578;47.892;9.970;2024-02-21T00:08:30;3.60;96.60
35463;DHT22;21578;47.892;9.970;2024-02-21T00:13:19;3.40;96.60
35463;DHT22;21578;47.892;9.970;2024-02-21T00:18:06;3.40;96.60
35463;DHT22;21578;47.892;9.970;2024-02-21T00:22:53;3.30;96.60
35463;DHT22;21578;47.892;9.970;2024-02-21T00:27:40;3.30;96.60
35463;DHT22;21578;47.892;9.970;2024-02-21T00:32:29;3.30;96.60
35463;DHT22;21578;47.892;9.970;2024-02-21T00:37:16;3.30;96.60
35463;DHT22;21578;47.892;9.970;2024-02-21T00:42:03;3.40;96.60
35463;DHT22;21578;47.892;9.970;2024-02-21T00:46:50;3.40;96.60
35463;DHT22;21578;47.892;9.970;2024-02-21T00:51:39;3.40;96.60
35463;DHT22;21578;47.892;9.970;2024-02-21T00:56:26;3.50;96.60
35463;DHT22;21578;47.892;9.970;2024-02-21T01:01:21;3.50;96.60
35463;DHT22;21578;47.892;9.970;2024-02-21T01:06:08;3.50;96.60
35463;DHT22;21578;47.892;9.970;2024-02-21T01:10:57;3.40;96.60
35463;DHT22;21578;47.892;9.970;2024-02-21T01:15:44;3.40;96.60
35463;DHT22;21578;47.892;9.970;2024-02-21T01:20:31;3.30;96.60
35463;DHT22;21578;47.892;9.970;2024-02-21T01:25:18;3.30;96.60
35463;DHT22;21578;47.892;9.970;2024-02-21T01:30:07;3.30;96.60
35463;DHT22;21578;47.892;9.970;2024-02-21T01:34:56;3.30;96.60
35463;DHT22;21578;47.892;9.970;2024-02-21T01:39:43;3.30;96.60
35463;DHT22;21578;47.892;9.970;2024-02-21T01:44:30;3.30;96.60
35463;DHT22;21578;47.892;9.970;2024-02-21T01:49:19;3.40;96.60
35463;DHT22;21578;47.892;9.970;2024-02-21T01:54:06;3.50;96.60
35463;DHT22;21578;47.892;9.970;2024-02-21T01:58:53;3.50;96.60
35463;DHT22;21578;47.892;9.970;2024-02-21T02:03:40;3.50;96.60
35463;DHT22;21578;47.892;9.970;2024-02-21T02:08:29;3.40;96.60
35463;DHT22;21578;47.892;9.970;2024-02-21T02:13:16;3.60;96.60
35463;DHT22;21578;47.892;9.970;2024-02-21T02:18:03;3.50;96.60
35463;DHT22;21578;47.892;9.970;2024-02-21T02:22:51;3.40;96.60
35463;DHT22;21578;47.892;9.970;2024-02-21T02:27:45;3.30;96.60
35463;DHT22;21578;47.892;9.970;2024-02-21T02:32:32;3.40;96.60
35463;DHT22;21578;47.892;9.970;2024-02-21T02:37:19;3.40;96.60
35463;DHT22;21578;47.892;9.970;2024-02-21T02:42:06;3.30;96.60
35463;DHT22;21578;47.892;9.970;2024-02-21T02:46:55;3.30;96.60
35463;DHT22;21578;47.892;9.970;2024-02-21T02:51:42;3.30;96.60
35463;DHT22;21578;47.892;9.970;2024-02-21T02:56:29;3.30;96.60
35463;DHT22;21578;47.892;9.970;2024-02-21T03:01:16;3.20;96.60
35463;DHT22;21578;47.892;9.970;2024-02-21T03:06:05;3.30;96.60
35463;DHT22;21578;47.892;9.970;2024-02-21T03:10:52;3.30;96.60
35463;DHT22;21578;47.892;9.970;2024-02-21T03:15:39;3.20;96.60
35463;DHT22;21578;47.892;9.970;2024-02-21T03:20:26;3.30;96.60
35463;DHT22;21578;47.892;9.970;2024-02-21T03:25:14;3.20;96.60
35463;DHT22;21578;47.892;9.970;2024-02-21T03:30:01;3.20;96.60
35463;DHT22;21578;47.892;9.970;2024-02-21T03:34:50;3.20;96.60
35463;DHT22;21578;47.892;9.970;2024-02-21T03:39:37;3.20;96.60
35463;DHT22;21578;47.892;9.970;2024-02-21T03:44:25;3.20;96.60
35463;DHT22;21578;47.892;9.970;2024-02-21T03:49:12;3.20;96.60
35463;DHT22;21578;47.892;9.970;2024-02-21T03:53:59;3.20;96.60
35463;DHT22;21578;47.892;9.970;2024-02-21T03:58:46;3.20;96.60
35463;DHT22;21578;47.892;9.970;2024-02-21T04:03:34;3.20;96.60
35463;DHT22;21578;47.892;9.970;2024-02-21T04:08:22;3.20;96.60
35463;DHT22;21578;47.892;9.970;2024-02-21T04:13:09;3.20;96.60
35463;DHT22;21578;47.892;9.970;2024-02-21T04:17:56;3.10;96.60
35463;DHT22;21578;47.892;9.970;2024-02-21T04:22:45;3.20;96.60
35463;DHT22;21578;47.892;9.970;2024-02-21T04:27:32;3.20;96.60
35463;DHT22;21578;47.892;9.970;2024-02-21T04:32:20;3.20;96.60
35463;DHT22;21578;47.892;9.970;2024-02-21T04:37:07;3.20;96.60
35463;DHT22;21578;47.892;9.970;2024-02-21T04:41:55;3.20;96.60
35463;DHT22;21578;47.892;9.970;2024-02-21T04:46:42;3.20;96.60
35463;DHT22;21578;47.892;9.970;2024-02-21T04:51:29;3.20;96.60
35463;DHT22;21578;47.892;9.970;2024-02-21T04:56:16;3.20;96.60
35463;DHT22;21578;47.892;9.970;2024-02-21T05:01:04;3.20;96.60
35463;DHT22;21578;47.892;9.970;2024-02-21T05:05:51;3.20;96.60
35463;DHT22;21578;47.892;9.970;2024-02-21T05:10:43;3.20;96.60
35463;DHT22;21578;47.892;9.970;2024-02-21T05:15:30;3.20;96.60
35463;DHT22;21578;47.892;9.970;2024-02-21T05:20:19;3.20;96.60
35463;DHT22;21578;47.892;9.970;2024-02-21T05:25:07;3.30;96.60
35463;DHT22;21578;47.892;9.970;2024-02-21T05:29:54;3.30;96.60
35463;DHT22;21578;47.892;9.970;2024-02-21T05:34:41;3.30;96.60
35463;DHT22;21578;47.892;9.970;2024-02-21T05:39:29;3.30;96.60
35463;DHT22;21578;47.892;9.970;2024-02-21T05:44:16;3.30;96.60
35463;DHT22;21578;47.892;9.970;2024-02-21T05:49:03;3.30;96.60
35463;DHT22;21578;47.892;9.970;2024-02-21T05:53:50;3.30;96.60
35463;DHT22;21578;47.892;9.970;2024-02-21T05:58:39;3.30;96.60
35463;DHT22;21578;47.892;9.970;2024-02-21T06:03:26;3.30;96.60
35463;DHT22;21578;47.892;9.970;2024-02-21T06:08:14;3.20;96.60
35463;DHT22;21578;47.892;9.970;2024-02-21T06:13:01;3.20;96.60
35463;DHT22;21578;47.892;9.970;2024-02-21T06:17:50;3.10;96.60
35463;DHT22;21578;47.892;9.970;2024-02-21T06:22:37;3.20;96.60
35463;DHT22;21578;47.892;9.970;2024-02-21T06:27:26;3.20;96.60
35463;DHT22;21578;47.892;9.970;2024-02-21T06:32:13;3.20;96.60
35463;DHT22;21578;47.892;9.970;2024-02-21T06:37:01;3.20;96.60
35463;DHT22;21578;47.892;9.970;2024-02-21T06:41:48;3.20;96.60
35463;DHT22;21578;47.892;9.970;2024-02-21T06:46:36;3.30;96.60
35463;DHT22;21578;47.892;9.970;2024-02-21T06:51:23;3.40;96.60
35463;DHT22;21578;47.892;9.970;2024-02-21T06:56:11;3.40;96.60
35463;DHT22;21578;47.892;9.970;2024-02-21T07:00:58;3.40;96.60
35463;DHT22;21578;47.892;9.970;2024-02-21T07:05:45;3.50;96.60
35463;DHT22;21578;47.892;9.970;2024-02-21T07:10:32;3.60;96.60
35463;DHT22;21578;47.892;9.970;2024-02-21T07:15:21;3.60;96.60
35463;DHT22;21578;47.892;9.970;2024-02-21T07:20:08;3.70;96.60
35463;DHT22;21578;47.892;9.970;2024-02-21T07:24:55;3.80;96.60
35463;DHT22;21578;47.892;9.970;2024-02-21T07:29:42;3.90;96.60
35463;DHT22;21578;47.892;9.970;2024-02-21T07:34:34;3.90;96.60
35463;DHT22;21578;47.892;9.970;2024-02-21T07:39:21;4.00;96.60
35463;DHT22;21578;47.892;9.970;2024-02-21T07:44:08;4.00;96.60
35463;DHT22;21578;47.892;9.970;2024-02-21T07:48:55;4.00;96.60
35463;DHT22;21578;47.892;9.970;2024-02-21T07:53:43;4.00;96.60
35463;DHT22;21578;47.892;9.970;2024-02-21T07:58:31;4.10;96.60
35463;DHT22;21578;47.892;9.970;2024-02-21T08:03:18;4.10;96.60
35463;DHT22;21578;47.892;9.970;2024-02-21T08:08:06;4.10;96.60
35463;DHT22;21578;47.892;9.970;2024-02-21T08:12:55;4.20;96.60
35463;DHT22;21578;47.892;9.970;2024-02-21T08:17:42;4.30;96.60
35463;DHT22;21578;47.892;9.970;2024-02-21T08:22:29;4.40;96.60
35463;DHT22;21578;47.892;9.970;2024-02-21T08:27:15;4.60;96.60
35463;DHT22;21578;47.892;9.970;2024-02-21T08:32:04;4.80;96.60
35463;DHT22;21578;47.892;9.970;2024-02-21T08:36:51;5.00;96.20
35463;DHT22;21578;47.892;9.970;2024-02-21T08:41:38;5.20;96.20
35463;DHT22;21578;47.892;9.970;2024-02-21T08:46:25;5.30;95.40
35463;DHT22;21578;47.892;9.970;2024-02-21T08:51:14;5.50;95.10
35463;DHT22;21578;47.892;9.970;2024-02-21T08:56:01;5.60;95.30
35463;DHT22;21578;47.892;9.970;2024-02-21T09:00:48;5.70;95.10
35463;DHT22;21578;47.892;9.970;2024-02-21T09:05:35;5.80;94.00
35463;DHT22;21578;47.892;9.970;2024-02-21T09:10:23;5.90;94.20
35463;DHT22;21578;47.892;9.970;2024-02-21T09:15:11;6.10;93.60
35463;DHT22;21578;47.892;9.970;2024-02-21T09:19:57;6.20;93.20
35463;DHT22;21578;47.892;9.970;2024-02-21T09:24:48;6.30;91.70
35463;DHT22;21578;47.892;9.970;2024-02-21T09:29:37;6.40;91.60
35463;DHT22;21578;47.892;9.970;2024-02-21T09:34:25;6.50;90.90
35463;DHT22;21578;47.892;9.970;2024-02-21T09:39:13;6.70;91.60
35463;DHT22;21578;47.892;9.970;2024-02-21T09:44:03;6.90;91.00
35463;DHT22;21578;47.892;9.970;2024-02-21T09:49:02;7.10;91.90
35463;DHT22;21578;47.892;9.970;2024-02-21T09:53:51;7.30;92.50
35463;DHT22;21578;47.892;9.970;2024-02-21T09:58:40;7.40;90.70
35463;DHT22;21578;47.892;9.970;2024-02-21T10:03:27;7.50;89.80
35463;DHT22;21578;47.892;9.970;2024-02-21T10:08:16;7.60;90.20
35463;DHT22;21578;47.892;9.970;2024-02-21T10:13:03;7.70;90.50
35463;DHT22;21578;47.892;9.970;2024-02-21T10:17:57;7.80;89.70
35463;DHT22;21578;47.892;9.970;2024-02-21T10:22:44;7.80;89.60
35463;DHT22;21578;47.892;9.970;2024-02-21T10:27:33;7.90;90.20
35463;DHT22;21578;47.892;9.970;2024-02-21T10:32:20;8.10;91.30
35463;DHT22;21578;47.892;9.970;2024-02-21T10:37:09;8.20;90.00
35463;DHT22;21578;47.892;9.970;2024-02-21T10:42:00;8.40;90.20
35463;DHT22;21578;47.892;9.970;2024-02-21T10:46:49;8.60;90.60
35463;DHT22;21578;47.892;9.970;2024-02-21T10:51:39;8.70;89.60
35463;DHT22;21578;47.892;9.970;2024-02-21T10:56:29;8.90;87.10
35463;DHT22;21578;47.892;9.970;2024-02-21T11:01:18;8.90;87.70
35463;DHT22;21578;47.892;9.970;2024-02-21T11:06:06;9.10;87.30
35463;DHT22;21578;47.892;9.970;2024-02-21T11:10:57;9.00;86.10
35463;DHT22;21578;47.892;9.970;2024-02-21T11:15:46;9.10;87.40
35463;DHT22;21578;47.892;9.970;2024-02-21T11:20:33;9.10;86.10
35463;DHT22;21578;47.892;9.970;2024-02-21T11:25:25;9.30;88.20
35463;DHT22;21578;47.892;9.970;2024-02-21T11:30:13;9.40;85.50
35463;DHT22;21578;47.892;9.970;2024-02-21T11:35:03;9.50;85.20
35463;DHT22;21578;47.892;9.970;2024-02-21T11:39:50;9.60;84.30
35463;DHT22;21578;47.892;9.970;2024-02-21T11:44:40;9.60;83.20
35463;DHT22;21578;47.892;9.970;2024-02-21T11:49:29;9.70;82.90
35463;DHT22;21578;47.892;9.970;2024-02-21T11:54:16;9.70;83.20
35463;DHT22;21578;47.892;9.970;2024-02-21T11:59:03;9.80;84.00
35463;DHT22;21578;47.892;9.970;2024-02-21T12:03:53;9.90;84.80
35463;DHT22;21578;47.892;9.970;2024-02-21T12:08:42;10.00;84.00
35463;DHT22;21578;47.892;9.970;2024-02-21T12:13:29;10.10;84.40
35463;DHT22;21578;47.892;9.970;2024-02-21T12:18:16;10.00;84.60
35463;DHT22;21578;47.892;9.970;2024-02-21T12:23:09;10.20;84.90
35463;DHT22;21578;47.892;9.970;2024-02-21T12:27:56;10.20;83.90
35463;DHT22;21578;47.892;9.970;2024-02-21T12:32:44;10.30;83.50
35463;DHT22;21578;47.892;9.970;2024-02-21T12:37:30;10.40;84.20
35463;DHT22;21578;47.892;9.970;2024-02-21T12:42:20;10.60;84.80
35463;DHT22;21578;47.892;9.970;2024-02-21T12:47:09;10.50;82.70
35463;DHT22;21578;47.892;9.970;2024-02-21T12:51:56;10.60;82.50
35463;DHT22;21578;47.892;9.970;2024-02-21T12:56:43;10.90;82.70
35463;DHT22;21578;47.892;9.970;2024-02-21T13:01:31;11.20;82.20
35463;DHT22;21578;47.892;9.970;2024-02-21T13:06:18;11.40;79.50
35463;DHT22;21578;47.892;9.970;2024-02-21T13:11:05;11.50;78.30
35463;DHT22;21578;47.892;9.970;2024-02-21T13:15:52;11.60;76.90
35463;DHT22;21578;47.892;9.970;2024-02-21T13:20:41;11.60;76.00
35463;DHT22;21578;47.892;9.970;2024-02-21T13:25:28;11.70;78.70
35463;DHT22;21578;47.892;9.970;2024-02-21T13:30:15;11.60;77.50
35463;DHT22;21578;47.892;9.970;2024-02-21T13:35:03;11.60;78.40
35463;DHT22;21578;47.892;9.970;2024-02-21T13:39:52;11.60;78.80
35463;DHT22;21578;47.892;9.970;2024-02-21T13:44:39;11.60;78.70
35463;DHT22;21578;47.892;9.970;2024-02-21T13:49:26;11.60;79.00
35463;DHT22;21578;47.892;9.970;2024-02-21T13:54:13;11.50;80.30
35463;DHT22;21578;47.892;9.970;2024-02-21T13:59:04;11.40;78.70
35463;DHT22;21578;47.892;9.970;2024-02-21T14:03:51;11.20;78.20
35463;DHT22;21578;47.892;9.970;2024-02-21T14:08:37;11.20;78.10
35463;DHT22;21578;47.892;9.970;2024-02-21T14:13:25;11.10;79.20
35463;DHT22;21578;47.892;9.970;2024-02-21T14:18:13;10.90;78.10
35463;DHT22;21578;47.892;9.970;2024-02-21T14:23:01;10.80;77.70
35463;DHT22;21578;47.892;9.970;2024-02-21T14:27:50;10.90;78.60
35463;DHT22;21578;47.892;9.970;2024-02-21T14:32:37;10.80;81.10
35463;DHT22;21578;47.892;9.970;2024-02-21T14:37:25;10.70;82.40
35463;DHT22;21578;47.892;9.970;2024-02-21T14:42:12;10.60;81.30
35463;DHT22;21578;47.892;9.970;2024-02-21T14:46:58;10.40;80.50
35463;DHT22;21578;47.892;9.970;2024-02-21T14:51:45;10.40;79.50
35463;DHT22;21578;47.892;9.970;2024-02-21T14:56:33;10.30;81.70
35463;DHT22;21578;47.892;9.970;2024-02-21T15:01:20;10.30;81.30
35463;DHT22;21578;47.892;9.970;2024-02-21T15:06:07;10.10;81.90
35463;DHT22;21578;47.892;9.970;2024-02-21T15:10:54;10.00;81.40
35463;DHT22;21578;47.892;9.970;2024-02-21T15:15:42;10.00;81.60
35463;DHT22;21578;47.892;9.970;2024-02-21T15:20:29;10.00;82.30
35463;DHT22;21578;47.892;9.970;2024-02-21T15:25:16;9.90;81.70
35463;DHT22;21578;47.892;9.970;2024-02-21T15:30:04;9.90;82.20
35463;DHT22;21578;47.892;9.970;2024-02-21T15:34:52;9.80;86.30
35463;DHT22;21578;47.892;9.970;2024-02-21T15:39:39;9.80;84.90
35463;DHT22;21578;47.892;9.970;2024-02-21T15:44:27;9.80;84.10
35463;DHT22;21578;47.892;9.970;2024-02-21T15:49:13;9.70;84.40
35463;DHT22;21578;47.892;9.970;2024-02-21T15:54:01;9.60;85.00
35463;DHT22;21578;47.892;9.970;2024-02-21T15:58:48;9.40;86.20
35463;DHT22;21578;47.892;9.970;2024-02-21T16:03:35;9.30;87.90
35463;DHT22;21578;47.892;9.970;2024-02-21T16:08:22;9.40;87.80
35463;DHT22;21578;47.892;9.970;2024-02-21T16:13:11;9.40;88.80
35463;DHT22;21578;47.892;9.970;2024-02-21T16:17:57;9.30;88.60
35463;DHT22;21578;47.892;9.970;2024-02-21T16:22:44;9.20;88.70
35463;DHT22;21578;47.892;9.970;2024-02-21T16:27:31;9.10;89.40
35463;DHT22;21578;47.892;9.970;2024-02-21T16:32:19;9.00;89.90
35463;DHT22;21578;47.892;9.970;2024-02-21T16:37:06;8.90;91.10
35463;DHT22;21578;47.892;9.970;2024-02-21T16:41:53;8.80;91.20
35463;DHT22;21578;47.892;9.970;2024-02-21T16:46:41;8.70;91.80
35463;DHT22;21578;47.892;9.970;2024-02-21T16:51:29;8.60;92.00
35463;DHT22;21578;47.892;9.970;2024-02-21T16:56:16;8.60;91.90
35463;DHT22;21578;47.892;9.970;2024-02-21T17:01:04;8.50;92.60
35463;DHT22;21578;47.892;9.970;2024-02-21T17:05:51;8.30;93.30
35463;DHT22;21578;47.892;9.970;2024-02-21T17:10:39;8.20;94.00
35463;DHT22;21578;47.892;9.970;2024-02-21T17:15:26;8.20;93.90
35463;DHT22;21578;47.892;9.970;2024-02-21T17:20:13;8.10;94.60
35463;DHT22;21578;47.892;9.970;2024-02-21T17:25:00;8.10;94.90
35463;DHT22;21578;47.892;9.970;2024-02-21T17:29:49;8.10;94.70
35463;DHT22;21578;47.892;9.970;2024-02-21T17:34:36;8.00;94.60
35463;DHT22;21578;47.892;9.970;2024-02-21T17:39:23;8.00;94.50
35463;DHT22;21578;47.892;9.970;2024-02-21T17:44:10;8.00;94.00
35463;DHT22;21578;47.892;9.970;2024-02-21T17:48:58;8.00;94.00
35463;DHT22;21578;47.892;9.970;2024-02-21T17:53:45;7.90;93.90
35463;DHT22;21578;47.892;9.970;2024-02-21T17:58:31;7.90;93.60
35463;DHT22;21578;47.892;9.970;2024-02-21T18:03:18;7.90;93.60
35463;DHT22;21578;47.892;9.970;2024-02-21T18:08:07;7.90;93.50
35463;DHT22;21578;47.892;9.970;2024-02-21T18:12:54;7.90;93.80
35463;DHT22;21578;47.892;9.970;2024-02-21T18:17:42;7.90;93.80
35463;DHT22;21578;47.892;9.970;2024-02-21T18:22:29;7.80;94.20
35463;DHT22;21578;47.892;9.970;2024-02-21T18:27:17;7.80;94.10
35463;DHT22;21578;47.892;9.970;2024-02-21T18:32:04;7.80;93.60
35463;DHT22;21578;47.892;9.970;2024-02-21T18:36:53;7.80;93.50
35463;DHT22;21578;47.892;9.970;2024-02-21T18:41:40;7.80;93.40
35463;DHT22;21578;47.892;9.970;2024-02-21T18:46:30;7.70;93.40
35463;DHT22;21578;47.892;9.970;2024-02-21T18:51:17;7.80;92.80
35463;DHT22;21578;47.892;9.970;2024-02-21T18:56:04;7.80;92.50
35463;DHT22;21578;47.892;9.970;2024-02-21T19:00:51;7.80;92.70
35463;DHT22;21578;47.892;9.970;2024-02-21T19:05:39;7.70;93.60
35463;DHT22;21578;47.892;9.970;2024-02-21T19:10:26;7.70;93.30
35463;DHT22;21578;47.892;9.970;2024-02-21T19:15:13;7.70;93.70
35463;DHT22;21578;47.892;9.970;2024-02-21T19:20:00;7.80;93.10
35463;DHT22;21578;47.892;9.970;2024-02-21T19:24:48;7.70;93.70
35463;DHT22;21578;47.892;9.970;2024-02-21T19:29:35;7.70;93.90
35463;DHT22;21578;47.892;9.970;2024-02-21T19:34:23;7.70;93.50
35463;DHT22;21578;47.892;9.970;2024-02-21T19:39:10;7.70;94.00
35463;DHT22;21578;47.892;9.970;2024-02-21T19:43:58;7.70;93.70
35463;DHT22;21578;47.892;9.970;2024-02-21T19:48:45;7.70;93.80
35463;DHT22;21578;47.892;9.970;2024-02-21T19:53:34;7.70;93.60
35463;DHT22;21578;47.892;9.970;2024-02-21T19:58:20;7.70;93.10
35463;DHT22;21578;47.892;9.970;2024-02-21T20:03:08;7.80;93.10
35463;DHT22;21578;47.892;9.970;2024-02-21T20:07:55;7.70;93.80
35463;DHT22;21578;47.892;9.970;2024-02-21T20:12:42;7.70;93.70
35463;DHT22;21578;47.892;9.970;2024-02-21T20:17:29;7.70;94.40
35463;DHT22;21578;47.892;9.970;2024-02-21T20:22:17;7.60;94.90
35463;DHT22;21578;47.892;9.970;2024-02-21T20:27:04;7.60;94.70
35463;DHT22;21578;47.892;9.970;2024-02-21T20:31:51;7.60;94.90
35463;DHT22;21578;47.892;9.970;2024-02-21T20:36:37;7.70;94.80
35463;DHT22;21578;47.892;9.970;2024-02-21T20:41:25;7.70;95.10
35463;DHT22;21578;47.892;9.970;2024-02-21T20:46:13;7.60;95.20
35463;DHT22;21578;47.892;9.970;2024-02-21T20:50:59;7.60;94.70
35463;DHT22;21578;47.892;9.970;2024-02-21T20:55:46;7.60;95.30
35463;DHT22;21578;47.892;9.970;2024-02-21T21:00:34;7.60;94.90
35463;DHT22;21578;47.892;9.970;2024-02-21T21:05:22;7.60;95.20
35463;DHT22;21578;47.892;9.970;2024-02-21T21:10:10;7.60;95.30
35463;DHT22;21578;47.892;9.970;2024-02-21T21:14:58;7.60;95.40
35463;DHT22;21578;47.892;9.970;2024-02-21T21:19:46;7.60;95.20
35463;DHT22;21578;47.892;9.970;2024-02-21T21:24:34;7.60;95.60
35463;DHT22;21578;47.892;9.970;2024-02-21T21:29:20;7.70;95.20
35463;DHT22;21578;47.892;9.970;2024-02-21T21:34:07;7.70;94.70
35463;DHT22;21578;47.892;9.970;2024-02-21T21:38:55;7.80;94.10
35463;DHT22;21578;47.892;9.970;2024-02-21T21:43:42;7.90;93.40
35463;DHT22;21578;47.892;9.970;2024-02-21T21:48:29;8.00;93.30
35463;DHT22;21578;47.892;9.970;2024-02-21T21:53:15;8.10;92.60
35463;DHT22;21578;47.892;9.970;2024-02-21T21:58:04;8.10;92.60
35463;DHT22;21578;47.892;9.970;2024-02-21T22:02:50;8.10;93.00
35463;DHT22;21578;47.892;9.970;2024-02-21T22:07:37;8.10;92.90
35463;DHT22;21578;47.892;9.970;2024-02-21T22:12:24;8.20;92.80
35463;DHT22;21578;47.892;9.970;2024-02-21T22:17:12;8.20;92.90
35463;DHT22;21578;47.892;9.970;2024-02-21T22:21:59;8.20;92.50
35463;DHT22;21578;47.892;9.970;2024-02-21T22:26:48;8.20;92.60
35463;DHT22;21578;47.892;9.970;2024-02-21T22:31:36;8.30;92.20
35463;DHT22;21578;47.892;9.970;2024-02-21T22:36:24;8.50;91.50
35463;DHT22;21578;47.892;9.970;2024-02-21T22:41:10;8.50;91.40
35463;DHT22;21578;47.892;9.970;2024-02-21T22:45:57;8.50;91.60
35463;DHT22;21578;47.892;9.970;2024-02-21T22:50:44;8.70;91.30
35463;DHT22;21578;47.892;9.970;2024-02-21T22:55:32;8.70;91.60
35463;DHT22;21578;47.892;9.970;2024-02-21T23:00:19;8.70;92.00
35463;DHT22;21578;47.892;9.970;2024-02-21T23:05:07;8.70;91.90
35463;DHT22;21578;47.892;9.970;2024-02-21T23:09:54;8.60;92.90
35463;DHT22;21578;47.892;9.970;2024-02-21T23:14:42;8.60;91.70
35463;DHT22;21578;47.892;9.970;2024-02-21T23:19:28;8.80;90.60
35463;DHT22;21578;47.892;9.970;2024-02-21T23:24:15;8.80;90.40
35463;DHT22;21578;47.892;9.970;2024-02-21T23:29:02;8.80;91.20
35463;DHT22;21578;47.892;9.970;2024-02-21T23:33:50;8.90;90.40
35463;DHT22;21578;47.892;9.970;2024-02-21T23:38:37;8.90;91.00
35463;DHT22;21578;47.892;9.970;2024-02-21T23:43:24;8.90;90.50
35463;DHT22;21578;47.892;9.970;2024-02-21T23:48:10;9.00;89.20
35463;DHT22;21578;47.892;9.970;2024-02-21T23:53:00;9.00;90.10
35463;DHT22;21578;47.892;9.970;2024-02-21T23:57:46;8.90;90.00
